Saratoga, North Carolina
Current Conditions -  °F | °C
As of 11:53 AM on Thursday 30 Oct 2014 (Local Time) from KRWI Reporting Station
Clear Clear  
Wind Chill: 64°   Ceiling: Unl
Heat Index: 64°   Visibility: 10mi
Dew Point: 47°   Wind: 13mph
Humidity: 54%   Direction: 30°NNE
Pressure: 30.05"   Gusts: NA
Location:  35.65°N, 77.78°W
Report Text: KRWI 301553Z AUTO 03011KT 10SM CLR 18/08 A3005 RMK AO2 SLP175 T01780083
Loading
Personal Weather Stations






























Interactive Weather Map
Tropical Storm Tracking
New forecast layout! Learn more

10-Day Weather Forecast

Advertisements
Track Severe Weather on mobile